Dades de l'estació automàtica Port de Barcelona - Bocana Sud

?
?
Resum diari 16:00 TU
Dades diàries de l'estació meteorològica
Ratxa màxima del vent (10 m) 31.0 km/h - 196º 11:36 TU

El tram horari està expressat en Temps Universal (TU). Cal sumar una hora en horari d'hivern i dues en horari d'estiu per passar a l'hora oficial.

Port de Barcelona - Bocana Sud

Metadades estació meteorol´gica
Municipi El Prat de Llobregat
Comarca Baix Llobregat
Altitud 3 m
Data alta 08.04.2015
Estat actual Operativa
Dades de període
Període
TU
VVM (10 m)
km/h
DVM (10 m)
graus
VVX (10 m)
km/h
00:00 - 00:30 4.0 216 6.8
00:30 - 01:00 9.4 269 13.0
01:00 - 01:30 8.6 285 11.2
01:30 - 02:00 7.6 313 9.4
02:00 - 02:30 4.7 307 8.3
02:30 - 03:00 4.0 291 5.8
03:00 - 03:30 7.2 297 9.7
03:30 - 04:00 7.2 304 9.0
04:00 - 04:30 7.2 302 9.4
04:30 - 05:00 5.4 306 7.6
05:00 - 05:30 7.2 274 9.7
05:30 - 06:00 7.6 280 9.7
06:00 - 06:30 8.3 283 10.8
06:30 - 07:00 11.2 296 15.1
07:00 - 07:30 8.6 289 11.9
07:30 - 08:00 6.5 265 10.8
08:00 - 08:30 7.6 273 12.6
08:30 - 09:00 10.1 220 15.5
09:00 - 09:30 16.2 199 20.2
09:30 - 10:00 16.9 191 20.9
10:00 - 10:30 19.1 194 24.5
10:30 - 11:00 24.5 194 29.5
11:00 - 11:30 24.5 196 29.2
11:30 - 12:00 25.6 201 31.0
12:00 - 12:30 23.8 203 30.6
12:30 - 13:00 21.6 208 27.0
13:00 - 13:30 20.2 211 24.8
13:30 - 14:00 20.2 213 25.9
14:00 - 14:30 22.3 213 27.0
14:30 - 15:00 21.6 217 26.6
15:00 - 15:30 20.2 221 24.1
15:30 - 16:00 20.5 223 28.4
16:00 - 16:30 18.7 219 23.8
16:30 - 17:00 (s/d) (s/d) (s/d)
17:00 - 17:30 (s/d) (s/d) (s/d)

Les dades en taronja només han passat un control de qualitat automàtic. Resta pendent la seva validació definitiva.